Time,TemperatureF,DewpointF,PressureIn,WindDirection,WindDirectionDegrees,WindSpeedMPH,WindSpeedGustMPH,Humidity,HourlyPrecipIn,Conditions,Clouds,dailyrainin,SolarRadiationWatts/m^2,SoftwareType,DateUTC
2013-03-14 00:00:00,35.8,34.0,30.18,West,260,1.0,5.0,93,0.00,,,0.00,0,Wunderground v.1.15,2013-03-14 06:00:00,
2013-03-14 00:06:00,35.7,33.9,30.17,West,265,1.0,5.0,93,0.00,,,0.00,0,Wunderground v.1.15,2013-03-14 06:06:00,
2013-03-14 00:11:00,35.6,33.8,30.17,West,265,1.0,5.0,93,0.00,,,0.00,0,Wunderground v.1.15,2013-03-14 06:11:00,
2013-03-14 00:17:00,35.5,33.7,30.17,West,265,1.0,5.0,93,0.00,,,0.00,0,Wunderground v.1.15,2013-03-14 06:17:00,
2013-03-14 00:23:00,35.5,33.9,30.17,West,265,1.0,5.0,94,0.00,,,0.00,0,Wunderground v.1.15,2013-03-14 06:23:00,
2013-03-14 00:29:00,35.5,33.9,30.17,West,265,1.0,5.0,94,0.00,,,0.00,0,Wunderground v.1.15,2013-03-14 06:29:00,
2013-03-14 00:34:00,35.4,33.8,30.17,West,265,1.0,5.0,94,0.00,,,0.00,0,Wunderground v.1.15,2013-03-14 06:34:00,
2013-03-14 00:40:00,35.4,33.8,30.17,West,265,1.0,5.0,94,0.00,,,0.00,0,Wunderground v.1.15,2013-03-14 06:40:00,
2013-03-14 00:46:00,35.4,33.8,30.18,West,265,1.0,5.0,94,0.00,,,0.00,0,Wunderground v.1.15,2013-03-14 06:46:00,
2013-03-14 00:52:00,35.5,33.9,30.18,West,265,1.0,3.0,94,0.00,,,0.00,0,Wunderground v.1.15,2013-03-14 06:52:00,
2013-03-14 00:57:00,35.6,34.0,30.18,West,265,1.0,5.0,94,0.00,,,0.00,0,Wunderground v.1.15,2013-03-14 06:57:00,
2013-03-14 01:03:00,35.7,34.4,30.18,West,265,1.0,5.0,95,0.00,,,0.00,0,Wunderground v.1.15,2013-03-14 07:03:00,
2013-03-14 01:09:00,35.9,34.6,30.18,West,265,1.0,5.0,95,0.00,,,0.00,0,Wunderground v.1.15,2013-03-14 07:09:00,
2013-03-14 01:14:00,36.0,34.7,30.18,West,265,1.0,5.0,95,0.00,,,0.00,0,Wunderground v.1.15,2013-03-14 07:14:00,
2013-03-14 01:20:00,36.1,34.8,30.18,West,265,2.0,2.0,95,0.00,,,0.00,0,Wunderground v.1.15,2013-03-14 07:20:00,
2013-03-14 01:26:00,36.0,34.7,30.18,West,265,2.0,5.0,95,0.00,,,0.00,0,Wunderground v.1.15,2013-03-14 07:26:00,
2013-03-14 01:31:00,36.0,34.7,30.18,West,265,1.0,5.0,95,0.00,,,0.00,0,Wunderground v.1.15,2013-03-14 07:31:00,
2013-03-14 01:36:00,36.0,34.7,30.17,West,265,1.0,5.0,95,0.00,,,0.00,0,Wunderground v.1.15,2013-03-14 07:36:00,
2013-03-14 01:42:00,36.0,34.7,30.17,West,265,1.0,5.0,95,0.00,,,0.00,0,Wunderground v.1.15,2013-03-14 07:42:00,
2013-03-14 01:47:00,36.1,34.8,30.17,West,265,1.0,5.0,95,0.00,,,0.00,0,Wunderground v.1.15,2013-03-14 07:47:00,
2013-03-14 01:52:00,36.1,34.8,30.17,West,265,1.0,5.0,95,0.00,,,0.00,0,Wunderground v.1.15,2013-03-14 07:52:00,
2013-03-14 01:58:00,36.0,34.7,30.17,West,265,1.0,5.0,95,0.00,,,0.00,0,Wunderground v.1.15,2013-03-14 07:58:00,
2013-03-14 02:03:00,35.9,34.6,30.17,West,265,1.0,5.0,95,0.00,,,0.00,0,Wunderground v.1.15,2013-03-14 08:03:00,
2013-03-14 02:09:00,35.6,34.3,30.17,West,265,0.0,5.0,95,0.00,,,0.00,0,Wunderground v.1.15,2013-03-14 08:09:00,
2013-03-14 02:14:00,35.5,34.2,30.16,West,265,0.0,5.0,95,0.00,,,0.00,0,Wunderground v.1.15,2013-03-14 08:14:00,
2013-03-14 02:19:00,35.5,34.2,30.17,West,265,0.0,5.0,95,0.00,,,0.00,0,Wunderground v.1.15,2013-03-14 08:19:00,
2013-03-14 02:25:00,35.5,34.2,30.17,West,265,0.0,5.0,95,0.00,,,0.00,0,Wunderground v.1.15,2013-03-14 08:25:00,
2013-03-14 02:32:00,35.7,34.4,30.17,West,265,0.0,5.0,95,0.00,,,0.00,0,Wunderground v.1.15,2013-03-14 08:32:00,
2013-03-14 02:38:00,36.2,35.2,30.17,SW,236,1.0,5.0,96,0.00,,,0.00,0,Wunderground v.1.15,2013-03-14 08:38:00,
2013-03-14 02:43:00,36.2,34.9,30.17,SW,236,1.0,5.0,95,0.00,,,0.00,0,Wunderground v.1.15,2013-03-14 08:43:00,
2013-03-14 02:49:00,36.0,34.7,30.17,SW,236,1.0,5.0,95,0.00,,,0.00,0,Wunderground v.1.15,2013-03-14 08:49:00,
2013-03-14 02:55:00,35.8,34.5,30.16,SW,236,0.0,5.0,95,0.00,,,0.00,0,Wunderground v.1.15,2013-03-14 08:55:00,
2013-03-14 03:01:00,35.9,34.6,30.16,SW,236,0.0,5.0,95,0.00,,,0.00,0,Wunderground v.1.15,2013-03-14 09:01:00,
2013-03-14 03:07:00,35.8,34.5,30.17,SW,236,0.0,5.0,95,0.00,,,0.00,0,Wunderground v.1.15,2013-03-14 09:07:00,
2013-03-14 03:12:00,35.8,34.5,30.17,SW,236,0.0,5.0,95,0.00,,,0.00,0,Wunderground v.1.15,2013-03-14 09:12:00,
2013-03-14 03:18:00,35.9,34.9,30.17,SW,236,0.0,5.0,96,0.00,,,0.00,0,Wunderground v.1.15,2013-03-14 09:18:00,
2013-03-14 03:23:00,35.9,34.9,30.17,SW,236,1.0,5.0,96,0.00,,,0.00,0,Wunderground v.1.15,2013-03-14 09:23:00,
2013-03-14 03:29:00,36.0,35.0,30.17,SW,236,1.0,5.0,96,0.00,,,0.00,0,Wunderground v.1.15,2013-03-14 09:29:00,
2013-03-14 03:35:00,36.2,35.2,30.17,SW,236,0.0,5.0,96,0.00,,,0.00,0,Wunderground v.1.15,2013-03-14 09:35:00,
2013-03-14 03:40:00,36.1,35.1,30.18,SW,236,0.0,5.0,96,0.00,,,0.00,0,Wunderground v.1.15,2013-03-14 09:40:00,
2013-03-14 03:47:00,36.1,35.1,30.17,SW,236,0.0,5.0,96,0.00,,,0.00,0,Wunderground v.1.15,2013-03-14 09:47:00,
2013-03-14 03:52:00,36.1,35.1,30.17,SW,236,0.0,5.0,96,0.00,,,0.00,0,Wunderground v.1.15,2013-03-14 09:52:00,
2013-03-14 03:57:00,36.1,35.1,30.17,SW,236,0.0,5.0,96,0.00,,,0.00,0,Wunderground v.1.15,2013-03-14 09:57:00,
2013-03-14 04:03:00,36.2,35.2,30.17,SW,236,0.0,5.0,96,0.00,,,0.00,0,Wunderground v.1.15,2013-03-14 10:03:00,
2013-03-14 04:09:00,36.2,35.2,30.17,SW,236,0.0,5.0,96,0.00,,,0.00,0,Wunderground v.1.15,2013-03-14 10:09:00,
2013-03-14 04:14:00,36.1,35.1,30.17,SW,236,0.0,5.0,96,0.00,,,0.00,0,Wunderground v.1.15,2013-03-14 10:14:00,
2013-03-14 04:20:00,36.1,35.1,30.17,WSW,240,0.0,5.0,96,0.00,,,0.00,0,Wunderground v.1.15,2013-03-14 10:20:00,
2013-03-14 04:26:00,36.2,35.2,30.17,WSW,240,1.0,5.0,96,0.00,,,0.00,0,Wunderground v.1.15,2013-03-14 10:26:00,
2013-03-14 04:32:00,36.4,35.4,30.17,WSW,240,1.0,5.0,96,0.00,,,0.00,0,Wunderground v.1.15,2013-03-14 10:32:00,
2013-03-14 04:37:00,36.4,35.4,30.16,WSW,240,0.0,5.0,96,0.00,,,0.00,0,Wunderground v.1.15,2013-03-14 10:37:00,
2013-03-14 04:43:00,36.4,35.4,30.17,WSW,240,0.0,5.0,96,0.00,,,0.00,0,Wunderground v.1.15,2013-03-14 10:43:00,
2013-03-14 04:49:00,36.4,35.4,30.17,WSW,240,0.0,5.0,96,0.00,,,0.00,0,Wunderground v.1.15,2013-03-14 10:49:00,
2013-03-14 04:54:00,36.2,35.2,30.17,WSW,240,0.0,5.0,96,0.00,,,0.00,0,Wunderground v.1.15,2013-03-14 10:54:00,
2013-03-14 04:59:00,36.0,35.0,30.17,WSW,240,0.0,5.0,96,0.00,,,0.00,0,Wunderground v.1.15,2013-03-14 10:59:00,
2013-03-14 05:05:00,35.9,34.9,30.17,WSW,240,0.0,5.0,96,0.00,,,0.00,0,Wunderground v.1.15,2013-03-14 11:05:00,
2013-03-14 05:11:00,35.7,34.4,30.17,WSW,240,1.0,5.0,95,0.00,,,0.00,0,Wunderground v.1.15,2013-03-14 11:11:00,
2013-03-14 05:17:00,35.6,34.3,30.17,WSW,240,1.0,5.0,95,0.00,,,0.00,0,Wunderground v.1.15,2013-03-14 11:17:00,
2013-03-14 05:23:00,35.5,34.2,30.17,WSW,240,0.0,5.0,95,0.00,,,0.00,0,Wunderground v.1.15,2013-03-14 11:23:00,
2013-03-14 05:28:00,35.4,34.1,30.17,WSW,240,0.0,5.0,95,0.00,,,0.00,0,Wunderground v.1.15,2013-03-14 11:28:00,
2013-03-14 05:34:00,35.3,34.0,30.17,WSW,240,1.0,5.0,95,0.00,,,0.00,0,Wunderground v.1.15,2013-03-14 11:34:00,
2013-03-14 05:40:00,35.3,34.3,30.16,WSW,240,0.0,5.0,96,0.00,,,0.00,0,Wunderground v.1.15,2013-03-14 11:40:00,
2013-03-14 05:45:00,35.3,34.0,30.16,WSW,240,1.0,5.0,95,0.00,,,0.00,0,Wunderground v.1.15,2013-03-14 11:45:00,
2013-03-14 05:51:00,35.3,34.0,30.16,WSW,240,1.0,5.0,95,0.00,,,0.00,0,Wunderground v.1.15,2013-03-14 11:51:00,
2013-03-14 05:57:00,35.3,34.0,30.17,WSW,240,1.0,5.0,95,0.00,,,0.00,0,Wunderground v.1.15,2013-03-14 11:57:00,
2013-03-14 06:03:00,35.3,34.0,30.17,WSW,240,0.0,5.0,95,0.00,,,0.00,0,Wunderground v.1.15,2013-03-14 12:03:00,
2013-03-14 06:09:00,35.3,34.3,30.17,WSW,240,1.0,5.0,96,0.00,,,0.00,0,Wunderground v.1.15,2013-03-14 12:09:00,
2013-03-14 06:15:00,35.3,34.0,30.16,WSW,240,0.0,5.0,95,0.00,,,0.00,0,Wunderground v.1.15,2013-03-14 12:15:00,
2013-03-14 06:22:00,35.2,33.9,30.17,WSW,240,1.0,5.0,95,0.00,,,0.00,0,Wunderground v.1.15,2013-03-14 12:22:00,
2013-03-14 06:28:00,35.1,33.8,30.17,WSW,240,1.0,5.0,95,0.00,,,0.00,0,Wunderground v.1.15,2013-03-14 12:28:00,
2013-03-14 06:33:00,35.1,34.1,30.17,WSW,240,1.0,5.0,96,0.00,,,0.00,0,Wunderground v.1.15,2013-03-14 12:33:00,
2013-03-14 06:39:00,35.1,34.1,30.17,WSW,240,1.0,5.0,96,0.00,,,0.00,0,Wunderground v.1.15,2013-03-14 12:39:00,
2013-03-14 06:44:00,35.2,34.2,30.16,WSW,240,1.0,5.0,96,0.00,,,0.00,0,Wunderground v.1.15,2013-03-14 12:44:00,
2013-03-14 06:49:00,35.3,34.3,30.16,WSW,240,0.0,5.0,96,0.00,,,0.00,0,Wunderground v.1.15,2013-03-14 12:49:00,
2013-03-14 06:55:00,35.3,34.3,30.16,WSW,240,1.0,5.0,96,0.00,,,0.00,0,Wunderground v.1.15,2013-03-14 12:55:00,
2013-03-14 07:00:00,35.3,34.3,30.16,WSW,240,1.0,1.0,96,0.00,,,0.00,0,Wunderground v.1.15,2013-03-14 13:00:00,
2013-03-14 07:05:00,35.3,34.3,30.16,WSW,240,1.0,5.0,96,0.00,,,0.00,0,Wunderground v.1.15,2013-03-14 13:05:00,
2013-03-14 07:11:00,35.3,34.3,30.16,WSW,240,1.0,5.0,96,0.00,,,0.00,0,Wunderground v.1.15,2013-03-14 13:11:00,
2013-03-14 07:17:00,35.3,34.3,30.16,WSW,240,0.0,5.0,96,0.00,,,0.00,0,Wunderground v.1.15,2013-03-14 13:17:00,
2013-03-14 07:22:00,35.4,34.4,30.16,WSW,240,0.0,5.0,96,0.00,,,0.00,0,Wunderground v.1.15,2013-03-14 13:22:00,
2013-03-14 07:28:00,35.4,34.4,30.16,WSW,240,0.0,5.0,96,0.00,,,0.00,0,Wunderground v.1.15,2013-03-14 13:28:00,
2013-03-14 07:33:00,35.3,34.3,30.16,WSW,240,0.0,5.0,96,0.00,,,0.00,0,Wunderground v.1.15,2013-03-14 13:33:00,
2013-03-14 07:39:00,35.3,34.3,30.16,WSW,240,0.0,5.0,96,0.00,,,0.00,0,Wunderground v.1.15,2013-03-14 13:39:00,
2013-03-14 07:45:00,35.3,34.3,30.16,SW,217,1.0,5.0,96,0.00,,,0.00,0,Wunderground v.1.15,2013-03-14 13:45:00,
2013-03-14 07:50:00,35.3,34.3,30.15,SW,217,1.0,1.0,96,0.00,,,0.00,0,Wunderground v.1.15,2013-03-14 13:50:00,
2013-03-14 07:55:00,35.3,34.3,30.16,SW,217,0.0,5.0,96,0.00,,,0.00,0,Wunderground v.1.15,2013-03-14 13:55:00,
2013-03-14 08:01:00,35.3,34.3,30.15,SW,217,0.0,5.0,96,0.00,,,0.00,0,Wunderground v.1.15,2013-03-14 14:01:00,
2013-03-14 08:07:00,35.4,34.4,30.15,SW,217,1.0,5.0,96,0.00,,,0.00,9,Wunderground v.1.15,2013-03-14 14:07:00,
2013-03-14 08:12:00,35.5,34.5,30.15,WSW,237,1.0,5.0,96,0.00,,,0.00,14,Wunderground v.1.15,2013-03-14 14:12:00,
2013-03-14 08:18:00,35.6,34.6,30.15,WSW,238,0.0,5.0,96,0.00,,,0.00,21,Wunderground v.1.15,2013-03-14 14:18:00,
2013-03-14 08:24:00,35.8,34.8,30.15,WSW,238,0.0,5.0,96,0.00,,,0.00,26,Wunderground v.1.15,2013-03-14 14:24:00,
2013-03-14 08:29:00,35.9,34.9,30.15,WSW,238,0.0,5.0,96,0.00,,,0.00,30,Wunderground v.1.15,2013-03-14 14:29:00,
2013-03-14 08:35:00,35.9,34.9,30.15,WSW,237,0.0,5.0,96,0.00,,,0.00,42,Wunderground v.1.15,2013-03-14 14:35:00,
2013-03-14 08:41:00,36.0,35.0,30.15,WSW,237,0.0,5.0,96,0.00,,,0.00,56,Wunderground v.1.15,2013-03-14 14:41:00,
2013-03-14 08:47:00,36.2,35.2,30.15,WSW,238,0.0,5.0,96,0.00,,,0.00,72,Wunderground v.1.15,2013-03-14 14:47:00,
2013-03-14 08:52:00,36.4,35.4,30.15,WSW,238,0.0,5.0,96,0.00,,,0.00,104,Wunderground v.1.15,2013-03-14 14:52:00,
2013-03-14 08:58:00,36.6,35.6,30.16,WSW,237,0.0,5.0,96,0.00,,,0.00,81,Wunderground v.1.15,2013-03-14 14:58:00,
2013-03-14 09:03:00,36.9,35.9,30.16,WSW,237,0.0,5.0,96,0.00,,,0.00,65,Wunderground v.1.15,2013-03-14 15:03:00,
2013-03-14 09:09:00,37.1,36.1,30.15,WSW,237,0.0,5.0,96,0.00,,,0.00,84,Wunderground v.1.15,2013-03-14 15:09:00,
2013-03-14 09:14:00,37.3,36.3,30.15,WSW,238,0.0,5.0,96,0.00,,,0.00,148,Wunderground v.1.15,2013-03-14 15:14:00,
2013-03-14 09:20:00,37.6,36.8,30.14,WSW,238,0.0,5.0,97,0.00,,,0.00,155,Wunderground v.1.15,2013-03-14 15:20:00,
2013-03-14 09:26:00,38.1,37.1,30.15,WSW,238,0.0,5.0,96,0.00,,,0.00,144,Wunderground v.1.15,2013-03-14 15:26:00,
2013-03-14 09:32:00,38.6,37.8,30.15,WSW,238,0.0,5.0,97,0.00,,,0.00,113,Wunderground v.1.15,2013-03-14 15:32:00,
2013-03-14 09:38:00,39.1,38.3,30.15,WSW,238,0.0,5.0,97,0.00,,,0.00,142,Wunderground v.1.15,2013-03-14 15:38:00,
2013-03-14 09:44:00,39.5,38.7,30.15,WSW,238,0.0,5.0,97,0.00,,,0.00,162,Wunderground v.1.15,2013-03-14 15:44:00,
2013-03-14 09:49:00,39.9,39.1,30.15,WSW,238,0.0,5.0,97,0.00,,,0.00,211,Wunderground v.1.15,2013-03-14 15:49:00,
2013-03-14 09:55:00,40.4,39.4,30.14,WSW,237,0.0,5.0,96,0.00,,,0.00,167,Wunderground v.1.15,2013-03-14 15:55:00,
2013-03-14 10:01:00,40.9,39.8,30.14,WSW,238,0.0,5.0,96,0.00,,,0.00,156,Wunderground v.1.15,2013-03-14 16:01:00,
2013-03-14 10:07:00,41.3,40.0,30.14,WSW,238,0.0,5.0,95,0.00,,,0.00,128,Wunderground v.1.15,2013-03-14 16:07:00,
2013-03-14 10:13:00,41.8,40.2,30.14,WSW,238,0.0,5.0,94,0.00,,,0.00,178,Wunderground v.1.15,2013-03-14 16:13:00,
2013-03-14 10:19:00,42.3,40.1,30.14,NW,304,0.0,5.0,92,0.00,,,0.00,338,Wunderground v.1.15,2013-03-14 16:19:00,
2013-03-14 10:24:00,43.1,39.8,30.14,SSE,154,1.0,5.0,88,0.00,,,0.00,209,Wunderground v.1.15,2013-03-14 16:24:00,
2013-03-14 10:30:00,43.9,40.3,30.14,SSE,153,1.0,1.0,87,0.00,,,0.00,209,Wunderground v.1.15,2013-03-14 16:30:00,
2013-03-14 10:36:00,44.3,40.4,30.14,SSE,154,0.0,5.0,86,0.00,,,0.00,244,Wunderground v.1.15,2013-03-14 16:36:00,
2013-03-14 10:41:00,44.8,40.3,30.14,SSE,154,0.0,5.0,84,0.00,,,0.00,380,Wunderground v.1.15,2013-03-14 16:41:00,
2013-03-14 10:46:00,45.0,39.8,30.14,SSE,154,0.0,5.0,82,0.00,,,0.00,239,Wunderground v.1.15,2013-03-14 16:46:00,
2013-03-14 10:51:00,45.5,40.0,30.14,SSE,153,0.0,5.0,81,0.00,,,0.00,236,Wunderground v.1.15,2013-03-14 16:51:00,
2013-03-14 10:57:00,45.8,39.7,30.14,SSE,153,0.0,5.0,79,0.00,,,0.00,288,Wunderground v.1.15,2013-03-14 16:57:00,
2013-03-14 11:02:00,46.2,39.4,30.14,SSE,153,0.0,5.0,77,0.00,,,0.00,315,Wunderground v.1.15,2013-03-14 17:02:00,
2013-03-14 11:07:00,46.8,39.6,30.14,SSE,154,0.0,5.0,76,0.00,,,0.00,366,Wunderground v.1.15,2013-03-14 17:07:00,
2013-03-14 11:12:00,47.3,40.1,30.14,SSE,154,1.0,5.0,76,0.00,,,0.00,288,Wunderground v.1.15,2013-03-14 17:12:00,
2013-03-14 11:18:00,47.6,40.1,30.14,SSE,153,1.0,5.0,75,0.00,,,0.00,295,Wunderground v.1.15,2013-03-14 17:18:00,
2013-03-14 11:24:00,47.8,39.9,30.14,WNW,293,0.0,5.0,74,0.00,,,0.00,336,Wunderground v.1.15,2013-03-14 17:24:00,
2013-03-14 11:29:00,48.0,39.8,30.14,SE,126,0.0,5.0,73,0.00,,,0.00,397,Wunderground v.1.15,2013-03-14 17:29:00,
2013-03-14 11:34:00,48.4,39.1,30.14,North,355,0.0,5.0,70,0.00,,,0.00,376,Wunderground v.1.15,2013-03-14 17:34:00,
2013-03-14 11:40:00,48.7,39.4,30.14,NNE,12,0.0,5.0,70,0.00,,,0.00,272,Wunderground v.1.15,2013-03-14 17:40:00,
2013-03-14 11:45:00,48.8,39.4,30.14,NNE,19,0.0,5.0,70,0.00,,,0.00,272,Wunderground v.1.15,2013-03-14 17:45:00,
2013-03-14 11:50:00,48.8,39.8,30.14,NNE,21,0.0,5.0,71,0.00,,,0.00,253,Wunderground v.1.15,2013-03-14 17:50:00,
2013-03-14 11:55:00,48.9,39.5,30.13,NNE,21,0.0,5.0,70,0.00,,,0.00,274,Wunderground v.1.15,2013-03-14 17:55:00,
2013-03-14 12:01:00,49.1,40.1,30.14,NNE,21,0.0,5.0,71,0.00,,,0.00,272,Wunderground v.1.15,2013-03-14 18:01:00,
2013-03-14 12:07:00,49.4,39.7,30.13,NNE,21,0.0,5.0,69,0.00,,,0.00,237,Wunderground v.1.15,2013-03-14 18:07:00,
2013-03-14 12:12:00,49.7,39.6,30.13,East,82,0.0,5.0,68,0.00,,,0.00,211,Wunderground v.1.15,2013-03-14 18:12:00,
2013-03-14 12:17:00,49.9,39.8,30.13,East,82,0.0,5.0,68,0.00,,,0.00,251,Wunderground v.1.15,2013-03-14 18:17:00,
2013-03-14 12:22:00,50.1,39.9,30.13,NE,48,0.0,5.0,68,0.00,,,0.00,279,Wunderground v.1.15,2013-03-14 18:22:00,
2013-03-14 12:28:00,50.3,39.8,30.13,East,101,0.0,5.0,67,0.00,,,0.00,285,Wunderground v.1.15,2013-03-14 18:28:00,
2013-03-14 12:33:00,50.3,39.8,30.13,ESE,102,0.0,5.0,67,0.00,,,0.00,248,Wunderground v.1.15,2013-03-14 18:33:00,
2013-03-14 12:38:00,50.5,39.6,30.13,ESE,102,0.0,5.0,66,0.00,,,0.00,264,Wunderground v.1.15,2013-03-14 18:38:00,
2013-03-14 12:43:00,50.7,39.7,30.12,East,101,0.0,5.0,66,0.00,,,0.00,241,Wunderground v.1.15,2013-03-14 18:43:00,
2013-03-14 12:49:00,50.9,39.9,30.12,ESE,102,0.0,5.0,66,0.00,,,0.00,288,Wunderground v.1.15,2013-03-14 18:49:00,
2013-03-14 12:55:00,51.1,40.1,30.12,SE,128,0.0,5.0,66,0.00,,,0.00,283,Wunderground v.1.15,2013-03-14 18:55:00,
2013-03-14 13:00:00,51.3,39.9,30.12,SE,128,0.0,5.0,65,0.00,,,0.00,274,Wunderground v.1.15,2013-03-14 19:00:00,
2013-03-14 13:06:00,51.5,40.5,30.12,SE,128,0.0,5.0,66,0.00,,,0.00,269,Wunderground v.1.15,2013-03-14 19:06:00,
2013-03-14 13:12:00,51.6,40.6,30.12,SE,128,0.0,5.0,66,0.00,,,0.00,255,Wunderground v.1.15,2013-03-14 19:12:00,
2013-03-14 13:18:00,51.5,40.1,30.12,SE,128,0.0,5.0,65,0.00,,,0.00,234,Wunderground v.1.15,2013-03-14 19:18:00,
2013-03-14 13:23:00,51.7,39.9,30.12,SE,128,0.0,5.0,64,0.00,,,0.00,190,Wunderground v.1.15,2013-03-14 19:23:00,
2013-03-14 13:29:00,51.7,39.9,30.12,SE,128,0.0,5.0,64,0.00,,,0.00,163,Wunderground v.1.15,2013-03-14 19:29:00,
2013-03-14 13:34:00,51.7,39.9,30.11,SE,128,0.0,5.0,64,0.00,,,0.00,163,Wunderground v.1.15,2013-03-14 19:34:00,
2013-03-14 13:40:00,51.5,39.7,30.10,SE,128,0.0,5.0,64,0.00,,,0.00,146,Wunderground v.1.15,2013-03-14 19:40:00,
2013-03-14 13:45:00,51.3,39.5,30.11,SE,128,0.0,5.0,64,0.00,,,0.00,139,Wunderground v.1.15,2013-03-14 19:45:00,
2013-03-14 13:51:00,51.1,39.3,30.10,SE,128,0.0,5.0,64,0.00,,,0.00,135,Wunderground v.1.15,2013-03-14 19:51:00,
2013-03-14 13:56:00,50.7,39.4,30.11,SE,128,0.0,5.0,65,0.00,,,0.00,130,Wunderground v.1.15,2013-03-14 19:56:00,
2013-03-14 14:02:00,50.1,39.2,30.10,SE,128,0.0,5.0,66,0.00,,,0.00,127,Wunderground v.1.15,2013-03-14 20:02:00,
2013-03-14 14:07:00,49.7,38.8,30.10,SE,128,0.0,5.0,66,0.00,,,0.00,146,Wunderground v.1.15,2013-03-14 20:07:00,
2013-03-14 14:13:00,49.2,39.1,30.09,SE,128,0.0,5.0,68,0.00,,,0.00,139,Wunderground v.1.15,2013-03-14 20:13:00,
2013-03-14 14:19:00,48.8,38.7,30.09,SE,128,0.0,5.0,68,0.00,,,0.00,123,Wunderground v.1.15,2013-03-14 20:19:00,
2013-03-14 14:24:00,48.4,38.3,30.09,SE,128,0.0,5.0,68,0.00,,,0.00,128,Wunderground v.1.15,2013-03-14 20:24:00,
2013-03-14 14:30:00,48.0,38.3,30.09,SE,128,0.0,5.0,69,0.00,,,0.00,160,Wunderground v.1.15,2013-03-14 20:30:00,
2013-03-14 14:36:00,47.6,38.3,30.09,SE,128,0.0,5.0,70,0.00,,,0.00,202,Wunderground v.1.15,2013-03-14 20:36:00,
2013-03-14 14:42:00,47.3,38.4,30.09,SE,128,0.0,5.0,71,0.00,,,0.00,207,Wunderground v.1.15,2013-03-14 20:42:00,
2013-03-14 14:47:00,47.3,38.4,30.09,SE,128,0.0,5.0,71,0.00,,,0.00,230,Wunderground v.1.15,2013-03-14 20:47:00,
2013-03-14 14:53:00,47.3,38.7,30.08,SE,128,0.0,5.0,72,0.00,,,0.00,211,Wunderground v.1.15,2013-03-14 20:53:00,
2013-03-14 14:58:00,47.4,39.2,30.08,SE,128,0.0,5.0,73,0.00,,,0.00,225,Wunderground v.1.15,2013-03-14 20:58:00,
2013-03-14 15:04:00,47.6,39.0,30.08,West,279,0.0,5.0,72,0.00,,,0.00,178,Wunderground v.1.15,2013-03-14 21:04:00,
2013-03-14 15:09:00,47.7,39.1,30.08,West,279,0.0,5.0,72,0.00,,,0.00,216,Wunderground v.1.15,2013-03-14 21:09:00,
2013-03-14 15:15:00,48.1,39.1,30.08,West,279,0.0,5.0,71,0.00,,,0.00,190,Wunderground v.1.15,2013-03-14 21:15:00,
2013-03-14 15:20:00,48.3,39.0,30.07,West,279,0.0,5.0,70,0.00,,,0.00,200,Wunderground v.1.15,2013-03-14 21:20:00,
2013-03-14 15:25:00,48.6,39.3,30.07,West,279,0.0,5.0,70,0.00,,,0.00,183,Wunderground v.1.15,2013-03-14 21:25:00,
2013-03-14 15:30:00,48.9,39.2,30.07,West,279,0.0,5.0,69,0.00,,,0.00,174,Wunderground v.1.15,2013-03-14 21:30:00,
2013-03-14 15:36:00,49.1,39.4,30.06,West,279,0.0,5.0,69,0.00,,,0.00,153,Wunderground v.1.15,2013-03-14 21:36:00,
2013-03-14 15:41:00,49.3,39.2,30.06,West,279,0.0,5.0,68,0.00,,,0.00,155,Wunderground v.1.15,2013-03-14 21:41:00,
2013-03-14 15:46:00,49.3,38.8,30.06,West,279,0.0,5.0,67,0.00,,,0.00,163,Wunderground v.1.15,2013-03-14 21:46:00,
2013-03-14 15:52:00,49.4,38.9,30.05,West,279,0.0,5.0,67,0.00,,,0.00,174,Wunderground v.1.15,2013-03-14 21:52:00,
2013-03-14 15:57:00,49.1,38.6,30.05,West,279,0.0,5.0,67,0.00,,,0.00,185,Wunderground v.1.15,2013-03-14 21:57:00,
2013-03-14 16:02:00,48.8,38.7,30.05,West,279,0.0,5.0,68,0.00,,,0.00,169,Wunderground v.1.15,2013-03-14 22:02:00,
2013-03-14 16:08:00,48.7,38.6,30.05,West,279,0.0,5.0,68,0.00,,,0.00,153,Wunderground v.1.15,2013-03-14 22:08:00,
2013-03-14 16:13:00,48.5,38.4,30.05,West,279,0.0,5.0,68,0.00,,,0.00,174,Wunderground v.1.15,2013-03-14 22:13:00,
2013-03-14 16:19:00,48.4,38.7,30.04,West,279,0.0,5.0,69,0.00,,,0.00,144,Wunderground v.1.15,2013-03-14 22:19:00,
2013-03-14 16:24:00,48.1,38.4,30.04,West,279,0.0,5.0,69,0.00,,,0.00,121,Wunderground v.1.15,2013-03-14 22:24:00,
2013-03-14 16:30:00,47.6,38.3,30.05,West,279,0.0,5.0,70,0.00,,,0.00,118,Wunderground v.1.15,2013-03-14 22:30:00,
2013-03-14 16:36:00,47.2,37.9,30.04,West,279,0.0,5.0,70,0.00,,,0.00,123,Wunderground v.1.15,2013-03-14 22:36:00,
2013-03-14 16:41:00,46.6,38.1,30.03,West,279,0.0,5.0,72,0.00,,,0.00,137,Wunderground v.1.15,2013-03-14 22:41:00,
2013-03-14 16:46:00,46.3,38.1,30.03,West,279,0.0,5.0,73,0.00,,,0.00,139,Wunderground v.1.15,2013-03-14 22:46:00,
2013-03-14 16:52:00,45.8,37.6,30.04,West,279,0.0,5.0,73,0.00,,,0.00,127,Wunderground v.1.15,2013-03-14 22:52:00,
2013-03-14 16:58:00,45.7,37.9,30.03,West,279,0.0,5.0,74,0.00,,,0.00,105,Wunderground v.1.15,2013-03-14 22:58:00,
2013-03-14 17:03:00,45.6,37.8,30.02,West,279,0.0,5.0,74,0.00,,,0.00,128,Wunderground v.1.15,2013-03-14 23:03:00,
2013-03-14 17:09:00,45.2,37.4,30.02,West,279,1.0,5.0,74,0.00,,,0.00,111,Wunderground v.1.15,2013-03-14 23:09:00,
2013-03-14 17:14:00,45.1,37.6,30.02,West,279,0.0,5.0,75,0.00,,,0.00,123,Wunderground v.1.15,2013-03-14 23:14:00,
2013-03-14 17:20:00,45.0,37.6,30.01,West,279,0.0,5.0,75,0.00,,,0.00,116,Wunderground v.1.15,2013-03-14 23:20:00,
2013-03-14 17:26:00,44.9,37.5,30.01,West,279,0.0,5.0,75,0.00,,,0.00,118,Wunderground v.1.15,2013-03-14 23:26:00,
2013-03-14 17:32:00,44.6,37.5,30.00,SW,218,1.0,5.0,76,0.00,,,0.00,98,Wunderground v.1.15,2013-03-14 23:32:00,
2013-03-14 17:37:00,44.4,37.3,30.00,SW,219,1.0,5.0,76,0.00,,,0.00,76,Wunderground v.1.15,2013-03-14 23:37:00,
2013-03-14 17:42:00,44.2,37.1,30.01,SW,219,0.0,5.0,76,0.00,,,0.00,76,Wunderground v.1.15,2013-03-14 23:42:00,
2013-03-14 17:48:00,44.0,37.3,30.00,WSW,237,0.0,5.0,77,0.00,,,0.00,67,Wunderground v.1.15,2013-03-14 23:48:00,
2013-03-14 17:54:00,43.6,36.9,30.00,WSW,237,1.0,5.0,77,0.00,,,0.00,74,Wunderground v.1.15,2013-03-14 23:54:00,
2013-03-14 17:59:00,43.3,36.9,30.00,West,271,1.0,5.0,78,0.00,,,0.00,84,Wunderground v.1.15,2013-03-14 23:59:00,
2013-03-14 18:04:00,43.3,36.9,30.00,West,271,1.0,5.0,78,0.00,,,0.00,83,Wunderground v.1.15,2013-03-15 00:04:00,
2013-03-14 18:10:00,43.5,36.8,30.01,West,271,1.0,5.0,77,0.00,,,0.00,77,Wunderground v.1.15,2013-03-15 00:10:00,
2013-03-14 18:15:00,43.5,37.1,30.00,West,271,1.0,5.0,78,0.00,,,0.00,72,Wunderground v.1.15,2013-03-15 00:15:00,
2013-03-14 18:20:00,43.6,36.9,30.00,West,271,1.0,5.0,77,0.00,,,0.00,72,Wunderground v.1.15,2013-03-15 00:20:00,
2013-03-14 18:26:00,43.4,36.7,30.00,West,269,1.0,5.0,77,0.00,,,0.00,54,Wunderground v.1.15,2013-03-15 00:26:00,
2013-03-14 18:32:00,43.7,37.3,30.00,West,277,2.0,5.0,78,0.00,,,0.00,51,Wunderground v.1.15,2013-03-15 00:32:00,
2013-03-14 18:38:00,44.0,36.9,30.00,West,277,1.0,5.0,76,0.00,,,0.00,47,Wunderground v.1.15,2013-03-15 00:38:00,
2013-03-14 18:43:00,43.9,36.8,29.99,West,268,1.0,5.0,76,0.00,,,0.00,46,Wunderground v.1.15,2013-03-15 00:43:00,
2013-03-14 18:49:00,43.8,36.7,29.99,West,263,2.0,5.0,76,0.00,,,0.00,32,Wunderground v.1.15,2013-03-15 00:49:00,
2013-03-14 18:54:00,43.7,37.0,29.99,West,264,1.0,5.0,77,0.00,,,0.00,26,Wunderground v.1.15,2013-03-15 00:54:00,
2013-03-14 19:00:00,43.5,37.1,29.99,WSW,245,1.0,1.0,78,0.00,,,0.00,19,Wunderground v.1.15,2013-03-15 01:00:00,
2013-03-14 19:07:00,43.4,36.7,29.99,West,267,1.0,5.0,77,0.00,,,0.00,18,Wunderground v.1.15,2013-03-15 01:07:00,
2013-03-14 19:13:00,43.2,36.5,29.99,South,183,1.0,5.0,77,0.00,,,0.00,11,Wunderground v.1.15,2013-03-15 01:13:00,
2013-03-14 19:19:00,43.0,36.6,29.98,South,183,1.0,5.0,78,0.00,,,0.00,7,Wunderground v.1.15,2013-03-15 01:19:00,
2013-03-14 19:24:00,42.5,35.8,29.99,WSW,248,1.0,5.0,77,0.00,,,0.00,7,Wunderground v.1.15,2013-03-15 01:24:00,
2013-03-14 19:29:00,41.9,35.9,29.99,WSW,248,1.0,5.0,79,0.00,,,0.00,5,Wunderground v.1.15,2013-03-15 01:29:00,
2013-03-14 19:34:00,41.3,35.3,29.99,SSW,203,1.0,5.0,79,0.00,,,0.00,0,Wunderground v.1.15,2013-03-15 01:34:00,
2013-03-14 19:40:00,40.7,35.3,29.99,SW,215,2.0,2.0,81,0.00,,,0.00,0,Wunderground v.1.15,2013-03-15 01:40:00,
2013-03-14 19:47:00,40.4,35.6,29.99,SW,217,1.0,5.0,83,0.00,,,0.00,0,Wunderground v.1.15,2013-03-15 01:47:00,
2013-03-14 19:52:00,40.3,35.5,29.99,SW,217,1.0,5.0,83,0.00,,,0.00,0,Wunderground v.1.15,2013-03-15 01:52:00,
2013-03-14 19:58:00,40.3,35.5,29.99,SW,232,1.0,5.0,83,0.00,,,0.00,0,Wunderground v.1.15,2013-03-15 01:58:00,
2013-03-14 20:03:00,40.3,35.5,29.99,WSW,242,2.0,5.0,83,0.00,,,0.00,0,Wunderground v.1.15,2013-03-15 02:03:00,
2013-03-14 20:09:00,40.5,35.7,29.99,SW,232,1.0,5.0,83,0.00,,,0.00,0,Wunderground v.1.15,2013-03-15 02:09:00,
2013-03-14 20:14:00,40.5,35.7,30.00,SW,236,1.0,5.0,83,0.00,,,0.00,0,Wunderground v.1.15,2013-03-15 02:14:00,
2013-03-14 20:20:00,40.4,35.3,29.99,West,268,2.0,5.0,82,0.00,,,0.00,0,Wunderground v.1.15,2013-03-15 02:20:00,
2013-03-14 20:25:00,40.0,34.9,30.00,West,268,2.0,5.0,82,0.00,,,0.00,0,Wunderground v.1.15,2013-03-15 02:25:00,
2013-03-14 20:31:00,39.5,34.8,30.00,West,267,1.0,5.0,83,0.00,,,0.00,0,Wunderground v.1.15,2013-03-15 02:31:00,
2013-03-14 20:37:00,39.2,34.8,30.00,West,267,1.0,5.0,84,0.00,,,0.00,0,Wunderground v.1.15,2013-03-15 02:37:00,
2013-03-14 20:42:00,38.9,34.8,30.00,West,267,1.0,5.0,85,0.00,,,0.00,0,Wunderground v.1.15,2013-03-15 02:42:00,
2013-03-14 20:47:00,38.8,34.7,29.99,West,267,1.0,5.0,85,0.00,,,0.00,0,Wunderground v.1.15,2013-03-15 02:47:00,
2013-03-14 20:52:00,38.8,35.0,29.99,WSW,252,1.0,5.0,86,0.00,,,0.00,0,Wunderground v.1.15,2013-03-15 02:52:00,
2013-03-14 20:58:00,38.7,34.9,30.00,WSW,252,1.0,5.0,86,0.00,,,0.00,0,Wunderground v.1.15,2013-03-15 02:58:00,
2013-03-14 21:03:00,38.6,34.8,30.00,WSW,252,0.0,5.0,86,0.00,,,0.00,0,Wunderground v.1.15,2013-03-15 03:03:00,
2013-03-14 21:09:00,38.5,34.7,30.00,WSW,252,1.0,5.0,86,0.00,,,0.00,0,Wunderground v.1.15,2013-03-15 03:09:00,
2013-03-14 21:14:00,38.3,34.5,30.00,WSW,252,1.0,5.0,86,0.00,,,0.00,0,Wunderground v.1.15,2013-03-15 03:14:00,
2013-03-14 21:20:00,38.1,34.6,30.00,WSW,252,2.0,2.0,87,0.00,,,0.00,0,Wunderground v.1.15,2013-03-15 03:20:00,
2013-03-14 21:26:00,37.8,34.3,30.00,WSW,248,2.0,5.0,87,0.00,,,0.00,0,Wunderground v.1.15,2013-03-15 03:26:00,
2013-03-14 21:32:00,37.7,34.5,30.00,West,259,1.0,5.0,88,0.00,,,0.00,0,Wunderground v.1.15,2013-03-15 03:32:00,
2013-03-14 21:37:00,37.8,34.6,30.00,West,259,1.0,5.0,88,0.00,,,0.00,0,Wunderground v.1.15,2013-03-15 03:37:00,
2013-03-14 21:43:00,37.7,34.5,30.00,SW,217,1.0,5.0,88,0.00,,,0.00,0,Wunderground v.1.15,2013-03-15 03:43:00,
2013-03-14 21:49:00,37.8,34.8,30.00,SW,217,1.0,5.0,89,0.00,,,0.00,0,Wunderground v.1.15,2013-03-15 03:49:00,
2013-03-14 21:54:00,37.7,34.5,30.00,SW,215,2.0,5.0,88,0.00,,,0.00,0,Wunderground v.1.15,2013-03-15 03:54:00,
2013-03-14 21:59:00,37.8,34.8,30.00,SSW,203,2.0,5.0,89,0.00,,,0.00,0,Wunderground v.1.15,2013-03-15 03:59:00,
2013-03-14 22:00:00,37.8,34.8,30.00,SSW,203,2.0,5.0,89,0.00,,,0.00,0,Wunderground v.1.15,2013-03-15 04:00:00,
2013-03-14 22:01:00,37.8,34.8,30.00,WSW,249,3.0,5.0,89,0.00,,,0.00,0,Wunderground v.1.15,2013-03-15 04:01:00,
2013-03-14 22:02:00,37.8,34.8,30.00,WSW,250,2.0,5.0,89,0.00,,,0.00,0,Wunderground v.1.15,2013-03-15 04:02:00,
2013-03-14 22:06:00,37.8,34.8,30.00,WSW,249,2.0,5.0,89,0.00,,,0.00,0,Wunderground v.1.15,2013-03-15 04:06:00,
2013-03-14 22:12:00,37.8,34.8,30.00,SW,222,1.0,5.0,89,0.00,,,0.00,0,Wunderground v.1.15,2013-03-15 04:12:00,
2013-03-14 22:17:00,37.7,34.8,29.99,SW,222,1.0,5.0,89,0.00,,,0.00,0,Wunderground v.1.15,2013-03-15 04:17:00,
2013-03-14 22:22:00,37.8,34.8,29.99,SW,214,2.0,5.0,89,0.00,,,0.00,0,Wunderground v.1.15,2013-03-15 04:22:00,
2013-03-14 22:28:00,38.3,34.8,30.00,SSW,211,3.0,7.0,87,0.00,,,0.00,0,Wunderground v.1.15,2013-03-15 04:28:00,
2013-03-14 22:34:00,39.1,35.0,29.99,West,279,2.0,5.0,85,0.00,,,0.00,0,Wunderground v.1.15,2013-03-15 04:34:00,
2013-03-14 22:40:00,39.8,34.8,29.99,West,275,2.0,2.0,82,0.00,,,0.00,0,Wunderground v.1.15,2013-03-15 04:40:00,
2013-03-14 22:46:00,41.9,34.2,29.99,East,86,3.0,7.0,74,0.00,,,0.00,0,Wunderground v.1.15,2013-03-15 04:46:00,
2013-03-14 22:52:00,44.6,34.7,30.00,WSW,241,4.0,5.0,68,0.00,,,0.00,0,Wunderground v.1.15,2013-03-15 04:52:00,
2013-03-14 22:58:00,47.1,35.1,29.99,ENE,75,3.0,7.0,63,0.00,,,0.00,0,Wunderground v.1.15,2013-03-15 04:58:00,
2013-03-14 23:04:00,48.3,34.6,29.99,SE,142,5.0,11.0,59,0.00,,,0.00,0,Wunderground v.1.15,2013-03-15 05:04:00,
2013-03-14 23:09:00,49.2,33.7,29.99,East,98,5.0,11.0,55,0.00,,,0.00,0,Wunderground v.1.15,2013-03-15 05:09:00,
2013-03-14 23:14:00,50.0,33.1,29.99,NE,40,4.0,8.0,52,0.00,,,0.00,0,Wunderground v.1.15,2013-03-15 05:14:00,
2013-03-14 23:19:00,50.7,33.2,29.99,ESE,120,5.0,10.0,51,0.00,,,0.00,0,Wunderground v.1.15,2013-03-15 05:19:00,
2013-03-14 23:24:00,50.8,33.3,29.99,ESE,103,4.0,6.0,51,0.00,,,0.00,0,Wunderground v.1.15,2013-03-15 05:24:00,
2013-03-14 23:29:00,50.7,32.7,29.99,South,188,3.0,9.0,50,0.00,,,0.00,0,Wunderground v.1.15,2013-03-15 05:29:00,
2013-03-14 23:34:00,50.7,32.2,29.98,ENE,70,4.0,10.0,49,0.00,,,0.00,0,Wunderground v.1.15,2013-03-15 05:34:00,
2013-03-14 23:40:00,50.8,31.8,29.98,ESE,118,4.0,5.0,48,0.00,,,0.00,0,Wunderground v.1.15,2013-03-15 05:40:00,
2013-03-14 23:45:00,51.0,32.0,29.99,West,267,4.0,5.0,48,0.00,,,0.00,0,Wunderground v.1.15,2013-03-15 05:45:00,
2013-03-14 23:51:00,51.1,32.1,29.98,SE,138,3.0,14.0,48,0.00,,,0.00,0,Wunderground v.1.15,2013-03-15 05:51:00,
2013-03-14 23:57:00,51.0,32.5,29.98,South,186,3.0,14.0,49,0.00,,,0.00,0,Wunderground v.1.15,2013-03-15 05:57:00,